sensor_id;sensor_type;location;lat;lon;timestamp;pressure;altitude;pressure_sealevel;temperature;humidity
141;BME280;65;48.778;9.160;2022-11-25T00:01:29;98486.22;;;2.95;100.00
141;BME280;65;48.778;9.160;2022-11-25T00:03:55;98487.28;;;2.86;100.00
141;BME280;65;48.778;9.160;2022-11-25T00:08:49;98487.59;;;2.75;100.00
141;BME280;65;48.778;9.160;2022-11-25T00:11:16;98479.84;;;2.72;100.00
141;BME280;65;48.778;9.160;2022-11-25T00:13:42;98474.66;;;2.71;100.00
141;BME280;65;48.778;9.160;2022-11-25T00:16:34;98466.91;;;2.68;100.00
141;BME280;65;48.778;9.160;2022-11-25T00:18:59;98464.44;;;2.63;100.00
141;BME280;65;48.778;9.160;2022-11-25T00:21:27;98460.03;;;2.65;100.00
141;BME280;65;48.778;9.160;2022-11-25T00:24:00;98455.38;;;2.76;100.00
141;BME280;65;48.778;9.160;2022-11-25T00:26:28;98469.34;;;2.74;100.00
141;BME280;65;48.778;9.160;2022-11-25T00:28:54;98466.78;;;2.72;100.00
141;BME280;65;48.778;9.160;2022-11-25T00:31:24;98472.75;;;2.77;100.00
141;BME280;65;48.778;9.160;2022-11-25T00:33:50;98484.06;;;2.76;100.00
141;BME280;65;48.778;9.160;2022-11-25T00:38:55;98479.50;;;2.84;100.00
141;BME280;65;48.778;9.160;2022-11-25T00:41:21;98473.41;;;2.84;100.00
141;BME280;65;48.778;9.160;2022-11-25T00:44:08;98462.84;;;2.89;100.00
141;BME280;65;48.778;9.160;2022-11-25T00:46:53;98466.09;;;2.98;100.00
141;BME280;65;48.778;9.160;2022-11-25T00:49:19;98466.81;;;3.03;100.00
141;BME280;65;48.778;9.160;2022-11-25T00:51:44;98471.19;;;3.03;100.00
141;BME280;65;48.778;9.160;2022-11-25T00:54:11;98471.19;;;3.03;100.00
141;BME280;65;48.778;9.160;2022-11-25T00:56:37;98468.22;;;3.15;100.00
141;BME280;65;48.778;9.160;2022-11-25T00:59:20;98470.69;;;3.20;100.00
141;BME280;65;48.778;9.160;2022-11-25T01:01:52;98469.75;;;3.22;100.00
141;BME280;65;48.778;9.160;2022-11-25T01:04:17;98470.41;;;3.29;100.00
141;BME280;65;48.778;9.160;2022-11-25T01:06:42;98470.28;;;3.33;100.00
141;BME280;65;48.778;9.160;2022-11-25T01:09:09;98477.13;;;3.37;100.00
141;BME280;65;48.778;9.160;2022-11-25T01:11:34;98483.25;;;3.36;100.00
141;BME280;65;48.778;9.160;2022-11-25T01:14:00;98486.72;;;3.37;100.00
141;BME280;65;48.778;9.160;2022-11-25T01:16:26;98481.25;;;3.44;100.00
141;BME280;65;48.778;9.160;2022-11-25T01:18:51;98480.19;;;3.52;100.00
141;BME280;65;48.778;9.160;2022-11-25T01:21:20;98481.88;;;3.54;100.00
141;BME280;65;48.778;9.160;2022-11-25T01:24:05;98478.22;;;3.60;100.00
141;BME280;65;48.778;9.160;2022-11-25T01:26:34;98470.88;;;3.71;100.00
141;BME280;65;48.778;9.160;2022-11-25T01:29:02;98471.50;;;3.79;100.00
141;BME280;65;48.778;9.160;2022-11-25T01:31:30;98480.75;;;3.89;100.00
141;BME280;65;48.778;9.160;2022-11-25T01:34:03;98478.75;;;3.97;100.00
141;BME280;65;48.778;9.160;2022-11-25T01:36:29;98482.75;;;4.09;100.00
141;BME280;65;48.778;9.160;2022-11-25T01:38:56;98476.47;;;4.15;100.00
141;BME280;65;48.778;9.160;2022-11-25T01:41:24;98477.34;;;4.15;100.00
141;BME280;65;48.778;9.160;2022-11-25T01:44:21;98478.78;;;4.24;100.00
141;BME280;65;48.778;9.160;2022-11-25T01:50:00;98474.41;;;4.24;100.00
141;BME280;65;48.778;9.160;2022-11-25T01:52:28;98474.19;;;4.30;100.00
141;BME280;65;48.778;9.160;2022-11-25T01:54:59;98471.75;;;4.26;100.00
141;BME280;65;48.778;9.160;2022-11-25T01:57:58;98475.25;;;4.25;100.00
141;BME280;65;48.778;9.160;2022-11-25T02:00:27;98482.66;;;4.38;100.00
141;BME280;65;48.778;9.160;2022-11-25T02:03:08;98475.75;;;4.61;100.00
141;BME280;65;48.778;9.160;2022-11-25T02:05:48;98472.00;;;4.69;100.00
141;BME280;65;48.778;9.160;2022-11-25T02:08:15;98479.06;;;4.67;100.00
141;BME280;65;48.778;9.160;2022-11-25T02:10:43;98479.91;;;4.68;100.00
141;BME280;65;48.778;9.160;2022-11-25T02:13:09;98483.31;;;4.70;100.00
141;BME280;65;48.778;9.160;2022-11-25T02:15:46;98483.28;;;4.71;100.00
141;BME280;65;48.778;9.160;2022-11-25T02:18:12;98484.47;;;4.61;100.00
141;BME280;65;48.778;9.160;2022-11-25T02:20:38;98483.28;;;4.71;100.00
141;BME280;65;48.778;9.160;2022-11-25T02:25:35;98486.63;;;4.75;100.00
141;BME280;65;48.778;9.160;2022-11-25T02:28:06;98486.91;;;4.67;100.00
141;BME280;65;48.778;9.160;2022-11-25T02:30:34;98473.38;;;4.55;100.00
141;BME280;65;48.778;9.160;2022-11-25T02:32:59;98476.56;;;4.38;100.00
141;BME280;65;48.778;9.160;2022-11-25T02:35:31;98481.19;;;4.30;100.00
141;BME280;65;48.778;9.160;2022-11-25T02:38:09;98473.34;;;4.30;100.00
141;BME280;65;48.778;9.160;2022-11-25T02:40:53;98478.72;;;4.25;100.00
141;BME280;65;48.778;9.160;2022-11-25T02:43:19;98472.69;;;4.23;100.00
141;BME280;65;48.778;9.160;2022-11-25T02:46:04;98468.91;;;4.32;100.00
141;BME280;65;48.778;9.160;2022-11-25T02:48:32;98467.25;;;4.29;100.00
141;BME280;65;48.778;9.160;2022-11-25T02:50:57;98464.91;;;4.22;100.00
141;BME280;65;48.778;9.160;2022-11-25T02:53:23;98465.97;;;4.16;100.00
141;BME280;65;48.778;9.160;2022-11-25T02:55:49;98472.41;;;4.04;100.00
141;BME280;65;48.778;9.160;2022-11-25T02:58:15;98465.47;;;4.03;100.00
141;BME280;65;48.778;9.160;2022-11-25T03:00:41;98462.16;;;3.98;100.00
141;BME280;65;48.778;9.160;2022-11-25T03:03:07;98464.81;;;3.97;100.00
141;BME280;65;48.778;9.160;2022-11-25T03:05:32;98464.94;;;3.94;100.00
141;BME280;65;48.778;9.160;2022-11-25T03:07:57;98459.16;;;3.84;100.00
141;BME280;65;48.778;9.160;2022-11-25T03:10:23;98456.00;;;3.73;100.00
141;BME280;65;48.778;9.160;2022-11-25T03:12:49;98449.28;;;3.66;100.00
141;BME280;65;48.778;9.160;2022-11-25T03:15:14;98455.75;;;3.54;100.00
141;BME280;65;48.778;9.160;2022-11-25T03:17:40;98462.69;;;3.55;100.00
141;BME280;65;48.778;9.160;2022-11-25T03:20:12;98456.91;;;3.44;100.00
141;BME280;65;48.778;9.160;2022-11-25T03:22:39;98447.53;;;3.37;100.00
141;BME280;65;48.778;9.160;2022-11-25T03:25:05;98446.06;;;3.28;100.00
141;BME280;65;48.778;9.160;2022-11-25T03:27:33;98448.56;;;3.31;100.00
141;BME280;65;48.778;9.160;2022-11-25T03:29:58;98453.97;;;3.25;100.00
141;BME280;65;48.778;9.160;2022-11-25T03:32:24;98454.16;;;3.19;100.00
141;BME280;65;48.778;9.160;2022-11-25T03:34:49;98451.88;;;3.08;100.00
141;BME280;65;48.778;9.160;2022-11-25T03:37:14;98454.69;;;3.01;100.00
141;BME280;65;48.778;9.160;2022-11-25T03:39:40;98455.91;;;2.89;100.00
141;BME280;65;48.778;9.160;2022-11-25T03:42:08;98458.63;;;2.84;100.00
141;BME280;65;48.778;9.160;2022-11-25T03:44:33;98450.09;;;2.78;100.00
141;BME280;65;48.778;9.160;2022-11-25T03:46:59;98452.72;;;2.78;100.00
141;BME280;65;48.778;9.160;2022-11-25T03:49:24;98450.88;;;2.81;100.00
141;BME280;65;48.778;9.160;2022-11-25T03:51:49;98444.13;;;2.74;100.00
141;BME280;65;48.778;9.160;2022-11-25T03:54:15;98443.22;;;2.75;100.00
141;BME280;65;48.778;9.160;2022-11-25T03:56:40;98452.03;;;2.71;100.00
141;BME280;65;48.778;9.160;2022-11-25T03:59:06;98450.28;;;2.72;100.00
141;BME280;65;48.778;9.160;2022-11-25T04:01:31;98452.03;;;2.71;100.00
141;BME280;65;48.778;9.160;2022-11-25T04:04:15;98453.81;;;2.69;100.00
141;BME280;65;48.778;9.160;2022-11-25T04:06:49;98450.19;;;2.75;100.00
141;BME280;65;48.778;9.160;2022-11-25T04:09:15;98453.66;;;2.75;100.00
141;BME280;65;48.778;9.160;2022-11-25T04:11:40;98453.75;;;2.72;100.00
141;BME280;65;48.778;9.160;2022-11-25T04:14:24;98453.78;;;2.71;100.00
141;BME280;65;48.778;9.160;2022-11-25T04:16:49;98453.56;;;2.78;100.00
141;BME280;65;48.778;9.160;2022-11-25T04:19:15;98444.13;;;2.74;100.00
141;BME280;65;48.778;9.160;2022-11-25T04:21:40;98444.00;;;2.79;100.00
141;BME280;65;48.778;9.160;2022-11-25T04:24:06;98442.31;;;2.76;100.00
141;BME280;65;48.778;9.160;2022-11-25T04:26:31;98447.94;;;2.94;100.00
141;BME280;65;48.778;9.160;2022-11-25T04:29:03;98438.41;;;3.22;100.00
141;BME280;65;48.778;9.160;2022-11-25T04:31:28;98442.59;;;3.28;100.00
141;BME280;65;48.778;9.160;2022-11-25T04:33:53;98439.75;;;3.35;100.00
141;BME280;65;48.778;9.160;2022-11-25T04:36:19;98444.44;;;3.54;100.00
141;BME280;65;48.778;9.160;2022-11-25T04:38:44;98439.97;;;3.57;100.00
141;BME280;65;48.778;9.160;2022-11-25T04:41:17;98434.75;;;3.57;100.00
141;BME280;65;48.778;9.160;2022-11-25T04:43:42;98429.16;;;3.68;100.00
141;BME280;65;48.778;9.160;2022-11-25T04:46:13;98428.16;;;3.72;100.00
141;BME280;65;48.778;9.160;2022-11-25T04:48:40;98441.28;;;3.70;100.00
141;BME280;65;48.778;9.160;2022-11-25T04:51:05;98445.56;;;3.73;100.00
141;BME280;65;48.778;9.160;2022-11-25T04:53:30;98445.25;;;3.82;100.00
141;BME280;65;48.778;9.160;2022-11-25T04:55:56;98445.78;;;3.93;100.00
141;BME280;65;48.778;9.160;2022-11-25T04:58:21;98446.31;;;4.03;100.00
141;BME280;65;48.778;9.160;2022-11-25T05:01:05;98443.25;;;3.90;100.00
141;BME280;65;48.778;9.160;2022-11-25T05:03:31;98453.41;;;3.73;100.00
141;BME280;65;48.778;9.160;2022-11-25T05:05:56;98451.28;;;3.58;100.00
141;BME280;65;48.778;9.160;2022-11-25T05:08:21;98458.50;;;3.49;100.00
141;BME280;65;48.778;9.160;2022-11-25T05:10:47;98457.78;;;3.43;100.00
141;BME280;65;48.778;9.160;2022-11-25T05:13:12;98459.66;;;3.39;100.00
141;BME280;65;48.778;9.160;2022-11-25T05:15:38;98456.47;;;3.30;100.00
141;BME280;65;48.778;9.160;2022-11-25T05:18:03;98457.53;;;3.23;100.00
141;BME280;65;48.778;9.160;2022-11-25T05:20:31;98452.63;;;3.12;100.00
141;BME280;65;48.778;9.160;2022-11-25T05:22:57;98449.47;;;3.01;100.00
141;BME280;65;48.778;9.160;2022-11-25T05:25:22;98445.34;;;2.94;100.00
141;BME280;65;48.778;9.160;2022-11-25T05:27:49;98450.19;;;3.06;100.00
141;BME280;65;48.778;9.160;2022-11-25T05:30:14;98453.00;;;3.00;100.00
141;BME280;65;48.778;9.160;2022-11-25T05:32:39;98455.78;;;2.94;100.00
141;BME280;65;48.778;9.160;2022-11-25T05:35:05;98456.78;;;2.90;100.00
141;BME280;65;48.778;9.160;2022-11-25T05:37:31;98450.66;;;2.91;100.00
141;BME280;65;48.778;9.160;2022-11-25T05:39:56;98457.50;;;2.95;100.00
141;BME280;65;48.778;9.160;2022-11-25T05:42:40;98464.88;;;3.10;100.00
141;BME280;65;48.778;9.160;2022-11-25T05:45:08;98469.13;;;3.14;100.00
141;BME280;65;48.778;9.160;2022-11-25T05:47:35;98470.66;;;3.21;100.00
141;BME280;65;48.778;9.160;2022-11-25T05:50:01;98476.31;;;3.35;100.00
141;BME280;65;48.778;9.160;2022-11-25T05:52:26;98478.59;;;3.46;100.00
141;BME280;65;48.778;9.160;2022-11-25T05:54:51;98480.72;;;3.63;100.00
141;BME280;65;48.778;9.160;2022-11-25T05:57:17;98479.72;;;3.67;100.00
141;BME280;65;48.778;9.160;2022-11-25T05:59:42;98481.06;;;3.80;100.00
141;BME280;65;48.778;9.160;2022-11-25T06:02:07;98484.75;;;3.73;100.00
141;BME280;65;48.778;9.160;2022-11-25T06:04:33;98486.63;;;3.69;100.00
141;BME280;65;48.778;9.160;2022-11-25T06:07:17;98486.63;;;3.69;100.00
141;BME280;65;48.778;9.160;2022-11-25T06:09:49;98490.31;;;3.62;100.00
141;BME280;65;48.778;9.160;2022-11-25T06:12:14;98490.50;;;3.56;100.00
141;BME280;65;48.778;9.160;2022-11-25T06:14:39;98499.50;;;3.47;100.00
141;BME280;65;48.778;9.160;2022-11-25T06:17:05;98493.88;;;3.30;100.00
141;BME280;65;48.778;9.160;2022-11-25T06:19:30;98494.25;;;3.18;100.00
141;BME280;65;48.778;9.160;2022-11-25T06:21:55;98490.78;;;3.17;100.00
141;BME280;65;48.778;9.160;2022-11-25T06:24:45;98494.41;;;3.12;100.00
141;BME280;65;48.778;9.160;2022-11-25T06:27:11;98510.59;;;2.94;100.00
141;BME280;65;48.778;9.160;2022-11-25T06:29:36;98511.69;;;2.85;100.00
141;BME280;65;48.778;9.160;2022-11-25T06:32:11;98505.84;;;2.75;100.00
141;BME280;65;48.778;9.160;2022-11-25T06:34:37;98508.78;;;2.63;100.00
141;BME280;65;48.778;9.160;2022-11-25T06:37:07;98509.75;;;2.59;100.00
141;BME280;65;48.778;9.160;2022-11-25T06:39:32;98514.06;;;2.62;100.00
141;BME280;65;48.778;9.160;2022-11-25T06:41:57;98516.78;;;2.57;100.00
141;BME280;65;48.778;9.160;2022-11-25T06:44:23;98514.81;;;2.65;100.00
141;BME280;65;48.778;9.160;2022-11-25T06:46:48;98511.31;;;2.66;100.00
141;BME280;65;48.778;9.160;2022-11-25T06:49:13;98523.53;;;2.64;100.00
141;BME280;65;48.778;9.160;2022-11-25T06:51:39;98521.38;;;2.80;100.00
141;BME280;65;48.778;9.160;2022-11-25T06:54:05;98524.75;;;2.83;100.00
141;BME280;65;48.778;9.160;2022-11-25T06:56:31;98521.34;;;2.81;100.00
141;BME280;65;48.778;9.160;2022-11-25T06:58:57;98527.38;;;2.83;100.00
141;BME280;65;48.778;9.160;2022-11-25T07:01:27;98526.25;;;2.94;100.00
141;BME280;65;48.778;9.160;2022-11-25T07:03:55;98529.53;;;3.62;100.00
141;BME280;65;48.778;9.160;2022-11-25T07:06:22;98536.06;;;4.05;100.00
141;BME280;65;48.778;9.160;2022-11-25T07:08:48;98533.00;;;4.19;100.00
141;BME280;65;48.778;9.160;2022-11-25T07:11:23;98534.31;;;4.32;100.00
141;BME280;65;48.778;9.160;2022-11-25T07:13:55;98542.78;;;4.40;100.00
141;BME280;65;48.778;9.160;2022-11-25T07:16:24;98538.94;;;4.50;100.00
141;BME280;65;48.778;9.160;2022-11-25T07:18:49;98536.13;;;4.56;100.00
141;BME280;65;48.778;9.160;2022-11-25T07:21:17;98534.19;;;4.63;100.00
141;BME280;65;48.778;9.160;2022-11-25T07:23:44;98538.25;;;4.71;100.00
141;BME280;65;48.778;9.160;2022-11-25T07:26:22;98540.00;;;4.71;100.00
141;BME280;65;48.778;9.160;2022-11-25T07:28:49;98536.44;;;4.73;100.00
141;BME280;65;48.778;9.160;2022-11-25T07:31:27;98537.19;;;4.77;100.00
141;BME280;65;48.778;9.160;2022-11-25T07:34:01;98540.59;;;4.79;100.00
141;BME280;65;48.778;9.160;2022-11-25T07:36:47;98546.38;;;4.89;100.00
141;BME280;65;48.778;9.160;2022-11-25T07:39:20;98547.13;;;4.92;100.00
141;BME280;65;48.778;9.160;2022-11-25T07:41:51;98558.88;;;5.05;100.00
141;BME280;65;48.778;9.160;2022-11-25T07:44:17;98559.56;;;5.11;100.00
141;BME280;65;48.778;9.160;2022-11-25T07:46:45;98561.00;;;5.19;100.00
141;BME280;65;48.778;9.160;2022-11-25T07:49:17;98566.22;;;5.21;100.00
141;BME280;65;48.778;9.160;2022-11-25T07:51:51;98568.72;;;5.24;100.00
141;BME280;65;48.778;9.160;2022-11-25T07:54:18;98567.88;;;5.23;100.00
141;BME280;65;48.778;9.160;2022-11-25T07:56:44;98571.41;;;5.22;100.00
141;BME280;65;48.778;9.160;2022-11-25T07:59:12;98576.50;;;5.27;100.00
141;BME280;65;48.778;9.160;2022-11-25T08:01:41;98588.41;;;5.35;100.00
141;BME280;65;48.778;9.160;2022-11-25T08:04:08;98590.00;;;5.39;100.00
141;BME280;65;48.778;9.160;2022-11-25T08:06:41;98582.25;;;5.36;100.00
141;BME280;65;48.778;9.160;2022-11-25T08:09:08;98581.13;;;5.44;100.00
141;BME280;65;48.778;9.160;2022-11-25T08:11:34;98584.41;;;5.49;100.00
141;BME280;65;48.778;9.160;2022-11-25T08:14:00;98579.06;;;5.52;100.00
141;BME280;65;48.778;9.160;2022-11-25T08:16:28;98582.25;;;5.60;100.00
141;BME280;65;48.778;9.160;2022-11-25T08:18:55;98582.88;;;5.66;100.00
141;BME280;65;48.778;9.160;2022-11-25T08:21:27;98582.16;;;5.63;100.00
141;BME280;65;48.778;9.160;2022-11-25T08:24:02;98583.28;;;5.56;100.00
141;BME280;65;48.778;9.160;2022-11-25T08:26:29;98575.31;;;5.59;100.00
141;BME280;65;48.778;9.160;2022-11-25T08:29:03;98568.91;;;5.66;100.00
141;BME280;65;48.778;9.160;2022-11-25T08:31:31;98567.66;;;5.76;100.00
141;BME280;65;48.778;9.160;2022-11-25T08:33:58;98575.28;;;5.84;100.00
141;BME280;65;48.778;9.160;2022-11-25T08:36:24;98577.69;;;5.90;100.00
141;BME280;65;48.778;9.160;2022-11-25T08:38:53;98577.16;;;6.03;100.00
141;BME280;65;48.778;9.160;2022-11-25T08:41:33;98578.44;;;5.93;100.00
141;BME280;65;48.778;9.160;2022-11-25T08:44:00;98574.34;;;6.08;100.00
141;BME280;65;48.778;9.160;2022-11-25T08:46:29;98569.47;;;6.21;100.00
141;BME280;65;48.778;9.160;2022-11-25T08:48:55;98572.88;;;6.23;100.00
141;BME280;65;48.778;9.160;2022-11-25T08:51:23;98579.59;;;6.30;100.00
141;BME280;65;48.778;9.160;2022-11-25T08:53:49;98573.44;;;6.31;100.00
141;BME280;65;48.778;9.160;2022-11-25T08:56:19;98563.78;;;6.31;100.00
141;BME280;65;48.778;9.160;2022-11-25T08:58:46;98581.94;;;6.38;100.00
141;BME280;65;48.778;9.160;2022-11-25T09:01:14;98580.41;;;6.32;100.00
141;BME280;65;48.778;9.160;2022-11-25T09:03:42;98586.50;;;6.32;100.00
141;BME280;65;48.778;9.160;2022-11-25T09:06:08;98579.59;;;6.30;100.00
141;BME280;65;48.778;9.160;2022-11-25T09:08:37;98579.75;;;6.49;100.00
141;BME280;65;48.778;9.160;2022-11-25T09:11:04;98579.69;;;6.50;100.00
141;BME280;65;48.778;9.160;2022-11-25T09:13:30;98582.47;;;6.68;100.00
141;BME280;65;48.778;9.160;2022-11-25T09:15:56;98593.00;;;6.88;100.00
141;BME280;65;48.778;9.160;2022-11-25T09:18:22;98591.41;;;7.06;100.00
141;BME280;65;48.778;9.160;2022-11-25T09:20:51;98591.78;;;7.17;100.00
141;BME280;65;48.778;9.160;2022-11-25T09:23:17;98600.84;;;7.30;100.00
141;BME280;65;48.778;9.160;2022-11-25T09:25:50;98602.56;;;7.31;100.00
141;BME280;65;48.778;9.160;2022-11-25T09:28:16;98603.00;;;7.41;100.00
141;BME280;65;48.778;9.160;2022-11-25T09:30:41;98610.13;;;7.59;100.00
141;BME280;65;48.778;9.160;2022-11-25T09:33:07;98613.25;;;7.67;100.00
141;BME280;65;48.778;9.160;2022-11-25T09:35:32;98609.34;;;7.76;100.00
141;BME280;65;48.778;9.160;2022-11-25T09:37:58;98613.78;;;7.94;100.00
141;BME280;65;48.778;9.160;2022-11-25T09:40:51;98612.34;;;8.06;100.00
141;BME280;65;48.778;9.160;2022-11-25T09:47:09;98602.47;;;8.30;95.01
141;BME280;65;48.778;9.160;2022-11-25T09:56:02;98608.16;;;8.94;95.60
141;BME280;65;48.778;9.160;2022-11-25T09:58:49;98604.75;;;8.92;90.53
141;BME280;65;48.778;9.160;2022-11-25T10:01:20;98604.41;;;8.81;90.29
141;BME280;65;48.778;9.160;2022-11-25T10:04:03;98598.94;;;9.03;94.42
141;BME280;65;48.778;9.160;2022-11-25T10:06:33;98601.88;;;9.14;97.29
141;BME280;65;48.778;9.160;2022-11-25T10:09:03;98604.19;;;9.03;91.14
141;BME280;65;48.778;9.160;2022-11-25T10:14:25;98618.41;;;9.35;91.00
141;BME280;65;48.778;9.160;2022-11-25T10:17:16;98615.22;;;9.28;91.47
141;BME280;65;48.778;9.160;2022-11-25T10:20:23;98620.72;;;9.41;89.50
141;BME280;65;48.778;9.160;2022-11-25T10:22:58;98624.13;;;9.60;88.50
141;BME280;65;48.778;9.160;2022-11-25T10:25:28;98623.38;;;9.74;86.92
141;BME280;65;48.778;9.160;2022-11-25T10:28:08;98626.09;;;9.72;89.83
141;BME280;65;48.778;9.160;2022-11-25T10:33:13;98613.66;;;10.40;83.68
141;BME280;65;48.778;9.160;2022-11-25T10:38:19;98615.13;;;10.92;80.36
141;BME280;65;48.778;9.160;2022-11-25T10:40:49;98608.81;;;11.10;83.03
141;BME280;65;48.778;9.160;2022-11-25T10:43:17;98612.78;;;11.17;82.92
141;BME280;65;48.778;9.160;2022-11-25T10:46:24;98605.34;;;11.24;80.11
141;BME280;65;48.778;9.160;2022-11-25T10:51:46;98612.31;;;10.95;83.52
141;BME280;65;48.778;9.160;2022-11-25T10:57:16;98614.94;;;10.65;87.32
141;BME280;65;48.778;9.160;2022-11-25T10:59:54;98605.25;;;10.80;82.16
141;BME280;65;48.778;9.160;2022-11-25T11:02:29;98621.06;;;10.65;85.25
141;BME280;65;48.778;9.160;2022-11-25T11:05:03;98618.16;;;10.70;83.29
141;BME280;65;48.778;9.160;2022-11-25T11:07:44;98619.78;;;10.57;83.03
141;BME280;65;48.778;9.160;2022-11-25T11:12:58;98624.81;;;10.30;85.54
141;BME280;65;48.778;9.160;2022-11-25T11:18:27;98632.59;;;10.15;85.52
141;BME280;65;48.778;9.160;2022-11-25T11:20:55;98629.84;;;10.01;85.97
141;BME280;65;48.778;9.160;2022-11-25T11:23:22;98633.88;;;10.08;85.35
141;BME280;65;48.778;9.160;2022-11-25T11:28:55;98651.41;;;9.76;91.13
141;BME280;65;48.778;9.160;2022-11-25T11:46:44;98689.94;;;9.29;91.78
141;BME280;65;48.778;9.160;2022-11-25T11:52:30;98688.81;;;9.15;97.51
141;BME280;65;48.778;9.160;2022-11-25T11:55:15;98693.34;;;8.95;100.00
141;BME280;65;48.778;9.160;2022-11-25T11:58:07;98698.53;;;8.79;100.00
141;BME280;65;48.778;9.160;2022-11-25T12:01:10;98708.75;;;8.66;100.00
141;BME280;65;48.778;9.160;2022-11-25T12:03:34;98699.56;;;8.56;100.00
141;BME280;65;48.778;9.160;2022-11-25T12:06:03;98694.66;;;8.48;100.00
141;BME280;65;48.778;9.160;2022-11-25T12:08:38;98695.66;;;8.46;100.00
141;BME280;65;48.778;9.160;2022-11-25T12:11:19;98687.69;;;8.47;100.00
141;BME280;65;48.778;9.160;2022-11-25T12:17:35;98696.59;;;8.45;100.00
141;BME280;65;48.778;9.160;2022-11-25T12:20:22;98701.78;;;8.46;100.00
141;BME280;65;48.778;9.160;2022-11-25T12:25:23;98700.94;;;8.46;100.00
141;BME280;65;48.778;9.160;2022-11-25T12:30:22;98697.25;;;8.50;100.00
141;BME280;65;48.778;9.160;2022-11-25T12:35:45;98711.69;;;8.60;100.00
141;BME280;65;48.778;9.160;2022-11-25T12:38:29;98718.72;;;8.60;100.00
141;BME280;65;48.778;9.160;2022-11-25T12:48:56;98722.16;;;8.62;100.00
141;BME280;65;48.778;9.160;2022-11-25T12:54:23;98727.94;;;8.70;100.00
141;BME280;65;48.778;9.160;2022-11-25T12:57:10;98740.25;;;8.69;100.00
141;BME280;65;48.778;9.160;2022-11-25T13:00:37;98744.78;;;8.66;100.00
141;BME280;65;48.778;9.160;2022-11-25T13:10:27;98771.56;;;8.56;100.00
141;BME280;65;48.778;9.160;2022-11-25T13:13:14;98771.72;;;8.53;100.00
141;BME280;65;48.778;9.160;2022-11-25T13:15:47;98773.28;;;8.57;100.00
141;BME280;65;48.778;9.160;2022-11-25T13:18:16;98776.97;;;8.53;100.00
141;BME280;65;48.778;9.160;2022-11-25T13:25:44;98787.88;;;8.65;100.00
141;BME280;65;48.778;9.160;2022-11-25T13:30:54;98790.81;;;8.96;100.00
141;BME280;65;48.778;9.160;2022-11-25T13:35:51;98800.78;;;9.08;100.00
141;BME280;65;48.778;9.160;2022-11-25T13:40:58;98805.56;;;9.00;100.00
141;BME280;65;48.778;9.160;2022-11-25T13:43:24;98807.06;;;8.87;100.00
141;BME280;65;48.778;9.160;2022-11-25T13:45:49;98807.63;;;8.94;100.00
141;BME280;65;48.778;9.160;2022-11-25T13:48:36;98819.25;;;9.08;100.00
141;BME280;65;48.778;9.160;2022-11-25T13:51:18;98816.25;;;9.16;100.00
141;BME280;65;48.778;9.160;2022-11-25T13:53:50;98815.84;;;9.25;100.00
141;BME280;65;48.778;9.160;2022-11-25T13:56:28;98828.00;;;9.28;100.00
141;BME280;65;48.778;9.160;2022-11-25T14:01:34;98825.44;;;9.26;100.00
141;BME280;65;48.778;9.160;2022-11-25T14:04:03;98830.00;;;9.23;100.00
141;BME280;65;48.778;9.160;2022-11-25T14:09:21;98835.34;;;9.02;100.00
141;BME280;65;48.778;9.160;2022-11-25T14:12:08;98838.81;;;9.22;98.22
141;BME280;65;48.778;9.160;2022-11-25T14:20:16;98857.97;;;9.27;95.56
141;BME280;65;48.778;9.160;2022-11-25T14:23:06;98852.16;;;9.37;97.96
141;BME280;65;48.778;9.160;2022-11-25T14:25:52;98852.69;;;9.27;98.39
141;BME280;65;48.778;9.160;2022-11-25T14:31:13;98854.38;;;9.28;96.16
141;BME280;65;48.778;9.160;2022-11-25T14:36:20;98861.44;;;9.08;96.09
141;BME280;65;48.778;9.160;2022-11-25T14:38:51;98860.00;;;8.82;96.20
141;BME280;65;48.778;9.160;2022-11-25T14:41:32;98857.94;;;8.89;95.53
141;BME280;65;48.778;9.160;2022-11-25T14:44:04;98872.19;;;8.85;96.74
141;BME280;65;48.778;9.160;2022-11-25T14:46:30;98869.47;;;8.86;93.66
141;BME280;65;48.778;9.160;2022-11-25T14:48:56;98871.97;;;8.90;93.47
141;BME280;65;48.778;9.160;2022-11-25T14:51:24;98876.31;;;8.91;90.60
141;BME280;65;48.778;9.160;2022-11-25T14:53:50;98873.03;;;8.85;91.83
141;BME280;65;48.778;9.160;2022-11-25T14:56:26;98869.81;;;8.79;93.13
141;BME280;65;48.778;9.160;2022-11-25T14:58:53;98876.28;;;8.72;93.42
141;BME280;65;48.778;9.160;2022-11-25T15:01:26;98884.66;;;8.61;95.45
141;BME280;65;48.778;9.160;2022-11-25T15:04:10;98883.78;;;8.61;92.85
141;BME280;65;48.778;9.160;2022-11-25T15:06:42;98878.44;;;8.62;95.30
141;BME280;65;48.778;9.160;2022-11-25T15:09:28;98887.69;;;8.52;96.03
141;BME280;65;48.778;9.160;2022-11-25T15:11:59;98888.16;;;8.41;95.39
141;BME280;65;48.778;9.160;2022-11-25T15:14:29;98889.28;;;8.36;95.65
141;BME280;65;48.778;9.160;2022-11-25T15:16:56;98898.19;;;8.32;94.72
141;BME280;65;48.778;9.160;2022-11-25T15:19:26;98908.47;;;8.17;95.70
141;BME280;65;48.778;9.160;2022-11-25T15:22:00;98908.72;;;8.11;95.61
141;BME280;65;48.778;9.160;2022-11-25T15:24:45;98907.03;;;8.09;96.89
141;BME280;65;48.778;9.160;2022-11-25T15:27:19;98914.84;;;8.12;94.88
141;BME280;65;48.778;9.160;2022-11-25T15:29:47;98926.91;;;8.17;95.67
141;BME280;65;48.778;9.160;2022-11-25T15:32:39;98926.69;;;8.22;96.30
141;BME280;65;48.778;9.160;2022-11-25T15:35:06;98938.41;;;8.15;96.34
141;BME280;65;48.778;9.160;2022-11-25T15:37:39;98938.16;;;8.21;95.29
141;BME280;65;48.778;9.160;2022-11-25T15:42:59;98950.78;;;8.13;96.43
141;BME280;65;48.778;9.160;2022-11-25T15:45:26;98943.41;;;8.21;95.78
141;BME280;65;48.778;9.160;2022-11-25T15:47:55;98944.81;;;8.30;94.23
141;BME280;65;48.778;9.160;2022-11-25T15:50:25;98942.25;;;8.28;94.83
141;BME280;65;48.778;9.160;2022-11-25T15:52:55;98940.00;;;8.19;95.66
141;BME280;65;48.778;9.160;2022-11-25T15:55:35;98949.16;;;8.09;96.79
141;BME280;65;48.778;9.160;2022-11-25T15:58:03;98946.97;;;7.98;96.76
141;BME280;65;48.778;9.160;2022-11-25T16:00:32;98953.47;;;7.89;97.25
141;BME280;65;48.778;9.160;2022-11-25T16:02:57;98947.66;;;7.81;97.37
141;BME280;65;48.778;9.160;2022-11-25T16:05:24;98948.50;;;7.82;98.10
141;BME280;65;48.778;9.160;2022-11-25T16:18:16;98968.41;;;7.67;100.00
141;BME280;65;48.778;9.160;2022-11-25T16:20:48;98969.31;;;7.66;99.76
141;BME280;65;48.778;9.160;2022-11-25T16:23:15;98972.75;;;7.68;99.50
141;BME280;65;48.778;9.160;2022-11-25T16:25:48;98971.03;;;7.67;99.33
141;BME280;65;48.778;9.160;2022-11-25T16:28:20;98977.19;;;7.66;100.00
141;BME280;65;48.778;9.160;2022-11-25T16:30:47;98988.47;;;7.70;100.00
141;BME280;65;48.778;9.160;2022-11-25T16:33:12;98982.28;;;7.71;99.74